sensor_id;sensor_type;location;lat;lon;timestamp;temperature;humidity
68215;DHT22;55036;52.138;5.236;2023-07-24T00:02:25;20.20;83.00
68215;DHT22;55036;52.138;5.236;2023-07-24T00:04:52;20.10;83.20
68215;DHT22;55036;52.138;5.236;2023-07-24T00:07:20;20.10;82.80
68215;DHT22;55036;52.138;5.236;2023-07-24T00:09:47;20.10;82.90
68215;DHT22;55036;52.138;5.236;2023-07-24T00:12:14;20.10;82.90
68215;DHT22;55036;52.138;5.236;2023-07-24T00:14:41;20.00;82.90
68215;DHT22;55036;52.138;5.236;2023-07-24T00:17:07;20.00;83.20
68215;DHT22;55036;52.138;5.236;2023-07-24T00:19:34;20.00;82.90
68215;DHT22;55036;52.138;5.236;2023-07-24T00:22:01;20.00;83.30
68215;DHT22;55036;52.138;5.236;2023-07-24T00:24:30;20.00;82.90
68215;DHT22;55036;52.138;5.236;2023-07-24T00:26:58;20.00;83.10
68215;DHT22;55036;52.138;5.236;2023-07-24T00:29:24;20.00;83.30
68215;DHT22;55036;52.138;5.236;2023-07-24T00:31:51;20.00;83.10
68215;DHT22;55036;52.138;5.236;2023-07-24T00:34:18;20.00;82.80
68215;DHT22;55036;52.138;5.236;2023-07-24T00:36:44;20.00;82.60
68215;DHT22;55036;52.138;5.236;2023-07-24T00:39:13;20.00;82.70
68215;DHT22;55036;52.138;5.236;2023-07-24T00:41:41;20.00;82.70
68215;DHT22;55036;52.138;5.236;2023-07-24T01:19:41;19.70;83.00
68215;DHT22;55036;52.138;5.236;2023-07-24T01:22:20;19.80;82.80
68215;DHT22;55036;52.138;5.236;2023-07-24T01:27:26;19.80;82.90
68215;DHT22;55036;52.138;5.236;2023-07-24T01:29:53;19.80;82.60
68215;DHT22;55036;52.138;5.236;2023-07-24T01:32:20;19.80;82.80
68215;DHT22;55036;52.138;5.236;2023-07-24T01:34:48;19.70;82.90
68215;DHT22;55036;52.138;5.236;2023-07-24T01:37:16;19.70;83.00
68215;DHT22;55036;52.138;5.236;2023-07-24T01:39:44;19.70;82.90
68215;DHT22;55036;52.138;5.236;2023-07-24T01:42:11;19.80;82.80
68215;DHT22;55036;52.138;5.236;2023-07-24T01:44:39;19.80;82.50
68215;DHT22;55036;52.138;5.236;2023-07-24T01:47:06;19.70;82.50
68215;DHT22;55036;52.138;5.236;2023-07-24T01:49:33;19.80;82.30
68215;DHT22;55036;52.138;5.236;2023-07-24T01:51:59;19.70;82.60
68215;DHT22;55036;52.138;5.236;2023-07-24T01:54:26;19.80;82.70
68215;DHT22;55036;52.138;5.236;2023-07-24T01:56:53;19.80;82.30
68215;DHT22;55036;52.138;5.236;2023-07-24T01:59:20;19.80;82.40
68215;DHT22;55036;52.138;5.236;2023-07-24T02:01:46;19.80;82.60
68215;DHT22;55036;52.138;5.236;2023-07-24T02:04:13;19.80;82.30
68215;DHT22;55036;52.138;5.236;2023-07-24T02:06:40;19.90;82.50
68215;DHT22;55036;52.138;5.236;2023-07-24T02:09:07;19.90;82.00
68215;DHT22;55036;52.138;5.236;2023-07-24T02:11:34;19.80;81.90
68215;DHT22;55036;52.138;5.236;2023-07-24T02:14:00;19.90;82.10
68215;DHT22;55036;52.138;5.236;2023-07-24T02:16:27;19.90;81.90
68215;DHT22;55036;52.138;5.236;2023-07-24T02:18:54;19.90;81.80
68215;DHT22;55036;52.138;5.236;2023-07-24T02:21:21;19.90;81.90
68215;DHT22;55036;52.138;5.236;2023-07-24T02:23:48;19.90;81.70
68215;DHT22;55036;52.138;5.236;2023-07-24T02:26:15;20.00;81.50
68215;DHT22;55036;52.138;5.236;2023-07-24T02:28:41;20.00;81.50
68215;DHT22;55036;52.138;5.236;2023-07-24T02:31:08;19.90;81.80
68215;DHT22;55036;52.138;5.236;2023-07-24T02:33:35;19.80;82.90
68215;DHT22;55036;52.138;5.236;2023-07-24T02:36:02;19.90;81.90
68215;DHT22;55036;52.138;5.236;2023-07-24T02:38:29;19.90;81.90
68215;DHT22;55036;52.138;5.236;2023-07-24T02:40:55;19.90;82.60
68215;DHT22;55036;52.138;5.236;2023-07-24T02:43:22;19.80;82.60
68215;DHT22;55036;52.138;5.236;2023-07-24T02:45:49;19.80;82.50
68215;DHT22;55036;52.138;5.236;2023-07-24T02:48:16;19.80;82.70
68215;DHT22;55036;52.138;5.236;2023-07-24T02:50:43;19.80;82.90
68215;DHT22;55036;52.138;5.236;2023-07-24T02:53:09;19.70;82.80
68215;DHT22;55036;52.138;5.236;2023-07-24T02:55:42;19.80;83.10
68215;DHT22;55036;52.138;5.236;2023-07-24T02:58:08;19.70;83.20
68215;DHT22;55036;52.138;5.236;2023-07-24T03:00:35;19.70;83.90
68215;DHT22;55036;52.138;5.236;2023-07-24T03:03:02;19.60;84.40
68215;DHT22;55036;52.138;5.236;2023-07-24T03:05:29;19.60;84.20
68215;DHT22;55036;52.138;5.236;2023-07-24T03:07:56;19.70;84.00
68215;DHT22;55036;52.138;5.236;2023-07-24T03:10:23;19.60;84.20
68215;DHT22;55036;52.138;5.236;2023-07-24T03:12:50;19.60;84.10
68215;DHT22;55036;52.138;5.236;2023-07-24T03:15:18;19.60;84.60
68215;DHT22;55036;52.138;5.236;2023-07-24T03:17:45;19.60;84.50
68215;DHT22;55036;52.138;5.236;2023-07-24T03:20:15;19.60;84.50
68215;DHT22;55036;52.138;5.236;2023-07-24T03:22:42;19.60;84.50
68215;DHT22;55036;52.138;5.236;2023-07-24T03:25:09;19.60;84.50
68215;DHT22;55036;52.138;5.236;2023-07-24T03:27:36;19.60;84.80
68215;DHT22;55036;52.138;5.236;2023-07-24T03:30:03;19.60;84.50
68215;DHT22;55036;52.138;5.236;2023-07-24T03:32:30;19.60;84.60
68215;DHT22;55036;52.138;5.236;2023-07-24T03:34:56;19.60;84.70
68215;DHT22;55036;52.138;5.236;2023-07-24T03:37:23;19.60;84.50
68215;DHT22;55036;52.138;5.236;2023-07-24T03:39:50;19.60;84.80
68215;DHT22;55036;52.138;5.236;2023-07-24T03:42:31;19.50;85.00
68215;DHT22;55036;52.138;5.236;2023-07-24T03:44:57;19.50;84.70
68215;DHT22;55036;52.138;5.236;2023-07-24T03:47:24;19.40;85.50
68215;DHT22;55036;52.138;5.236;2023-07-24T03:49:51;19.40;86.20
68215;DHT22;55036;52.138;5.236;2023-07-24T03:52:18;19.40;85.30
68215;DHT22;55036;52.138;5.236;2023-07-24T03:54:45;19.40;84.90
68215;DHT22;55036;52.138;5.236;2023-07-24T03:57:12;19.40;85.10
68215;DHT22;55036;52.138;5.236;2023-07-24T03:59:39;19.40;84.90
68215;DHT22;55036;52.138;5.236;2023-07-24T04:02:05;19.40;85.10
68215;DHT22;55036;52.138;5.236;2023-07-24T04:04:37;19.40;85.00
68215;DHT22;55036;52.138;5.236;2023-07-24T04:07:04;19.40;85.30
68215;DHT22;55036;52.138;5.236;2023-07-24T04:09:31;19.30;85.50
68215;DHT22;55036;52.138;5.236;2023-07-24T04:11:58;19.40;86.30
68215;DHT22;55036;52.138;5.236;2023-07-24T04:14:25;19.40;85.10
68215;DHT22;55036;52.138;5.236;2023-07-24T04:16:51;19.40;85.40
68215;DHT22;55036;52.138;5.236;2023-07-24T04:19:18;19.40;85.30
68215;DHT22;55036;52.138;5.236;2023-07-24T04:21:45;19.40;85.40
68215;DHT22;55036;52.138;5.236;2023-07-24T04:24:12;19.40;85.40
68215;DHT22;55036;52.138;5.236;2023-07-24T04:26:38;19.40;85.30
68215;DHT22;55036;52.138;5.236;2023-07-24T04:29:06;19.40;85.30
68215;DHT22;55036;52.138;5.236;2023-07-24T04:31:33;19.40;85.30
68215;DHT22;55036;52.138;5.236;2023-07-24T04:34:00;19.40;85.20
68215;DHT22;55036;52.138;5.236;2023-07-24T04:36:27;19.40;85.30
68215;DHT22;55036;52.138;5.236;2023-07-24T04:38:54;19.40;85.60
68215;DHT22;55036;52.138;5.236;2023-07-24T04:41:21;19.40;85.60
68215;DHT22;55036;52.138;5.236;2023-07-24T04:43:48;19.40;85.60
68215;DHT22;55036;52.138;5.236;2023-07-24T04:46:14;19.40;85.60
68215;DHT22;55036;52.138;5.236;2023-07-24T04:48:41;19.50;85.70
68215;DHT22;55036;52.138;5.236;2023-07-24T04:51:08;19.50;85.80
68215;DHT22;55036;52.138;5.236;2023-07-24T04:53:34;19.50;85.70
68215;DHT22;55036;52.138;5.236;2023-07-24T04:56:01;19.50;85.80
68215;DHT22;55036;52.138;5.236;2023-07-24T04:58:28;19.40;86.80
68215;DHT22;55036;52.138;5.236;2023-07-24T05:00:55;19.30;86.50
68215;DHT22;55036;52.138;5.236;2023-07-24T05:03:22;19.30;86.40
68215;DHT22;55036;52.138;5.236;2023-07-24T05:05:54;19.20;87.00
68215;DHT22;55036;52.138;5.236;2023-07-24T05:08:22;19.20;87.10
68215;DHT22;55036;52.138;5.236;2023-07-24T05:10:56;19.20;87.40
68215;DHT22;55036;52.138;5.236;2023-07-24T05:13:23;19.30;87.20
68215;DHT22;55036;52.138;5.236;2023-07-24T05:15:50;19.30;87.40
68215;DHT22;55036;52.138;5.236;2023-07-24T05:18:16;19.30;87.50
68215;DHT22;55036;52.138;5.236;2023-07-24T05:20:47;19.30;87.50
68215;DHT22;55036;52.138;5.236;2023-07-24T05:23:14;19.30;87.80
68215;DHT22;55036;52.138;5.236;2023-07-24T05:25:41;19.30;88.00
68215;DHT22;55036;52.138;5.236;2023-07-24T05:28:08;19.30;87.70
68215;DHT22;55036;52.138;5.236;2023-07-24T05:30:35;19.40;87.00
68215;DHT22;55036;52.138;5.236;2023-07-24T05:33:02;19.40;87.00
68215;DHT22;55036;52.138;5.236;2023-07-24T05:35:29;19.30;87.50
68215;DHT22;55036;52.138;5.236;2023-07-24T05:37:56;19.40;87.60
68215;DHT22;55036;52.138;5.236;2023-07-24T05:40:23;19.50;87.40
68215;DHT22;55036;52.138;5.236;2023-07-24T05:42:49;19.50;87.20
68215;DHT22;55036;52.138;5.236;2023-07-24T05:45:16;19.60;86.20
68215;DHT22;55036;52.138;5.236;2023-07-24T05:47:43;19.60;86.40
68215;DHT22;55036;52.138;5.236;2023-07-24T05:50:10;19.60;86.40
68215;DHT22;55036;52.138;5.236;2023-07-24T05:52:39;19.70;86.80
68215;DHT22;55036;52.138;5.236;2023-07-24T05:55:07;19.80;85.50
68215;DHT22;55036;52.138;5.236;2023-07-24T05:57:34;19.90;86.10
68215;DHT22;55036;52.138;5.236;2023-07-24T06:00:02;20.00;85.60
68215;DHT22;55036;52.138;5.236;2023-07-24T06:02:29;20.00;85.00
68215;DHT22;55036;52.138;5.236;2023-07-24T06:04:56;20.20;85.50
68215;DHT22;55036;52.138;5.236;2023-07-24T06:07:23;20.50;84.20
68215;DHT22;55036;52.138;5.236;2023-07-24T06:09:50;20.50;82.80
68215;DHT22;55036;52.138;5.236;2023-07-24T06:12:16;20.60;81.80
68215;DHT22;55036;52.138;5.236;2023-07-24T06:14:43;20.60;81.50
68215;DHT22;55036;52.138;5.236;2023-07-24T06:17:10;20.80;79.90
68215;DHT22;55036;52.138;5.236;2023-07-24T06:19:36;20.70;81.20
68215;DHT22;55036;52.138;5.236;2023-07-24T06:22:03;20.70;79.50
68215;DHT22;55036;52.138;5.236;2023-07-24T06:24:30;20.70;79.40
68215;DHT22;55036;52.138;5.236;2023-07-24T06:26:57;20.50;79.70
68215;DHT22;55036;52.138;5.236;2023-07-24T06:29:24;20.40;79.80
68215;DHT22;55036;52.138;5.236;2023-07-24T06:31:51;20.30;79.60
68215;DHT22;55036;52.138;5.236;2023-07-24T06:34:18;20.30;79.80
68215;DHT22;55036;52.138;5.236;2023-07-24T06:36:44;20.30;79.50
68215;DHT22;55036;52.138;5.236;2023-07-24T06:39:11;20.30;79.60
68215;DHT22;55036;52.138;5.236;2023-07-24T06:41:38;20.40;79.90
68215;DHT22;55036;52.138;5.236;2023-07-24T06:44:05;20.40;79.50
68215;DHT22;55036;52.138;5.236;2023-07-24T06:46:32;20.50;79.20
68215;DHT22;55036;52.138;5.236;2023-07-24T06:48:58;20.50;78.80
68215;DHT22;55036;52.138;5.236;2023-07-24T06:51:25;20.30;78.60
68215;DHT22;55036;52.138;5.236;2023-07-24T06:53:52;20.30;77.30
68215;DHT22;55036;52.138;5.236;2023-07-24T06:56:19;20.20;78.00
68215;DHT22;55036;52.138;5.236;2023-07-24T06:58:45;20.30;78.70
68215;DHT22;55036;52.138;5.236;2023-07-24T07:01:12;20.30;78.50
68215;DHT22;55036;52.138;5.236;2023-07-24T07:03:39;20.30;78.70
68215;DHT22;55036;52.138;5.236;2023-07-24T07:06:05;20.40;78.10
68215;DHT22;55036;52.138;5.236;2023-07-24T07:08:33;20.50;77.00
68215;DHT22;55036;52.138;5.236;2023-07-24T07:11:00;20.40;77.80
68215;DHT22;55036;52.138;5.236;2023-07-24T07:13:27;20.60;77.90
68215;DHT22;55036;52.138;5.236;2023-07-24T07:15:54;20.90;77.10
68215;DHT22;55036;52.138;5.236;2023-07-24T07:18:21;21.10;77.40
68215;DHT22;55036;52.138;5.236;2023-07-24T07:20:49;21.30;76.40
68215;DHT22;55036;52.138;5.236;2023-07-24T07:23:16;21.50;75.10
68215;DHT22;55036;52.138;5.236;2023-07-24T07:25:43;21.60;75.50
68215;DHT22;55036;52.138;5.236;2023-07-24T07:28:15;21.90;75.20
68215;DHT22;55036;52.138;5.236;2023-07-24T07:30:43;22.10;74.50
68215;DHT22;55036;52.138;5.236;2023-07-24T07:33:11;22.20;73.50
68215;DHT22;55036;52.138;5.236;2023-07-24T07:35:38;22.20;72.20
68215;DHT22;55036;52.138;5.236;2023-07-24T07:38:05;22.10;71.70
68215;DHT22;55036;52.138;5.236;2023-07-24T07:40:31;22.00;72.10
68215;DHT22;55036;52.138;5.236;2023-07-24T07:42:58;22.10;71.30
68215;DHT22;55036;52.138;5.236;2023-07-24T07:45:25;22.20;69.60
68215;DHT22;55036;52.138;5.236;2023-07-24T07:47:52;22.20;70.20
68215;DHT22;55036;52.138;5.236;2023-07-24T07:50:20;22.20;70.70
68215;DHT22;55036;52.138;5.236;2023-07-24T07:52:50;22.20;70.40
68215;DHT22;55036;52.138;5.236;2023-07-24T07:55:20;22.10;70.60
68215;DHT22;55036;52.138;5.236;2023-07-24T07:57:47;22.00;69.90
68215;DHT22;55036;52.138;5.236;2023-07-24T08:00:14;22.10;70.20
68215;DHT22;55036;52.138;5.236;2023-07-24T08:02:41;22.20;70.60
68215;DHT22;55036;52.138;5.236;2023-07-24T08:05:09;22.30;69.30
68215;DHT22;55036;52.138;5.236;2023-07-24T08:07:46;22.40;69.60
68215;DHT22;55036;52.138;5.236;2023-07-24T08:10:13;22.40;67.80
68215;DHT22;55036;52.138;5.236;2023-07-24T08:12:43;22.10;68.50
68215;DHT22;55036;52.138;5.236;2023-07-24T08:15:10;22.00;68.20
68215;DHT22;55036;52.138;5.236;2023-07-24T08:17:37;22.00;68.50
68215;DHT22;55036;52.138;5.236;2023-07-24T08:20:04;21.80;68.40
68215;DHT22;55036;52.138;5.236;2023-07-24T08:22:31;21.80;69.40
68215;DHT22;55036;52.138;5.236;2023-07-24T08:24:58;21.90;69.30
68215;DHT22;55036;52.138;5.236;2023-07-24T08:27:25;22.10;69.70
68215;DHT22;55036;52.138;5.236;2023-07-24T08:29:51;22.20;69.30
68215;DHT22;55036;52.138;5.236;2023-07-24T08:32:21;22.30;69.00
68215;DHT22;55036;52.138;5.236;2023-07-24T08:34:48;22.60;69.50
68215;DHT22;55036;52.138;5.236;2023-07-24T08:37:15;22.90;68.10
68215;DHT22;55036;52.138;5.236;2023-07-24T08:39:41;22.80;67.00
68215;DHT22;55036;52.138;5.236;2023-07-24T08:42:10;22.80;67.70
68215;DHT22;55036;52.138;5.236;2023-07-24T08:44:37;22.70;68.10
68215;DHT22;55036;52.138;5.236;2023-07-24T08:47:04;22.70;67.30
68215;DHT22;55036;52.138;5.236;2023-07-24T08:49:33;22.60;66.70
68215;DHT22;55036;52.138;5.236;2023-07-24T08:52:01;22.70;68.10
68215;DHT22;55036;52.138;5.236;2023-07-24T08:54:29;23.10;67.70
68215;DHT22;55036;52.138;5.236;2023-07-24T08:56:56;23.30;67.80
68215;DHT22;55036;52.138;5.236;2023-07-24T08:59:23;23.60;65.70
68215;DHT22;55036;52.138;5.236;2023-07-24T09:01:50;23.60;64.80
68215;DHT22;55036;52.138;5.236;2023-07-24T09:04:18;23.30;64.60
68215;DHT22;55036;52.138;5.236;2023-07-24T09:06:45;23.00;64.20
68215;DHT22;55036;52.138;5.236;2023-07-24T09:09:13;22.80;65.30
68215;DHT22;55036;52.138;5.236;2023-07-24T09:11:51;22.80;64.60
68215;DHT22;55036;52.138;5.236;2023-07-24T09:14:25;22.70;65.00
68215;DHT22;55036;52.138;5.236;2023-07-24T09:17:11;22.50;65.10
68215;DHT22;55036;52.138;5.236;2023-07-24T09:19:38;22.40;65.40
68215;DHT22;55036;52.138;5.236;2023-07-24T09:22:12;22.30;65.60
68215;DHT22;55036;52.138;5.236;2023-07-24T09:24:57;22.10;65.30
68215;DHT22;55036;52.138;5.236;2023-07-24T09:27:26;22.10;65.60
68215;DHT22;55036;52.138;5.236;2023-07-24T09:29:55;22.00;65.70
68215;DHT22;55036;52.138;5.236;2023-07-24T09:32:23;22.00;65.90
68215;DHT22;55036;52.138;5.236;2023-07-24T09:34:50;22.00;66.10
68215;DHT22;55036;52.138;5.236;2023-07-24T09:37:28;22.00;66.20
68215;DHT22;55036;52.138;5.236;2023-07-24T09:39:55;22.10;66.20
68215;DHT22;55036;52.138;5.236;2023-07-24T09:42:36;22.10;66.00
68215;DHT22;55036;52.138;5.236;2023-07-24T09:45:23;22.00;66.70
68215;DHT22;55036;52.138;5.236;2023-07-24T09:47:51;22.00;67.30
68215;DHT22;55036;52.138;5.236;2023-07-24T09:50:25;22.10;67.30
68215;DHT22;55036;52.138;5.236;2023-07-24T09:52:53;22.20;67.10
68215;DHT22;55036;52.138;5.236;2023-07-24T09:55:27;22.10;67.00
68215;DHT22;55036;52.138;5.236;2023-07-24T09:57:56;22.30;67.60
68215;DHT22;55036;52.138;5.236;2023-07-24T10:00:25;22.40;66.60
68215;DHT22;55036;52.138;5.236;2023-07-24T10:02:52;22.60;65.60
68215;DHT22;55036;52.138;5.236;2023-07-24T10:05:19;22.60;64.80
68215;DHT22;55036;52.138;5.236;2023-07-24T10:07:47;22.70;64.60
68215;DHT22;55036;52.138;5.236;2023-07-24T10:10:15;22.90;66.20
68215;DHT22;55036;52.138;5.236;2023-07-24T10:12:42;23.00;64.50
68215;DHT22;55036;52.138;5.236;2023-07-24T10:15:09;22.80;64.10
68215;DHT22;55036;52.138;5.236;2023-07-24T10:17:38;22.90;64.00
68215;DHT22;55036;52.138;5.236;2023-07-24T10:20:07;22.80;64.80
68215;DHT22;55036;52.138;5.236;2023-07-24T10:22:35;22.70;64.70
68215;DHT22;55036;52.138;5.236;2023-07-24T10:25:02;22.70;64.00
68215;DHT22;55036;52.138;5.236;2023-07-24T10:27:29;22.80;64.40
68215;DHT22;55036;52.138;5.236;2023-07-24T10:30:04;22.90;64.30
68215;DHT22;55036;52.138;5.236;2023-07-24T10:32:49;23.10;63.50
68215;DHT22;55036;52.138;5.236;2023-07-24T10:35:21;23.30;64.40
68215;DHT22;55036;52.138;5.236;2023-07-24T10:37:59;23.50;63.60
68215;DHT22;55036;52.138;5.236;2023-07-24T10:40:27;23.40;62.50
68215;DHT22;55036;52.138;5.236;2023-07-24T10:48:20;23.90;63.40
68215;DHT22;55036;52.138;5.236;2023-07-24T10:50:49;24.10;62.90
68215;DHT22;55036;52.138;5.236;2023-07-24T10:53:21;24.30;62.10
68215;DHT22;55036;52.138;5.236;2023-07-24T10:55:49;24.50;60.70
68215;DHT22;55036;52.138;5.236;2023-07-24T10:58:19;24.50;59.30
68215;DHT22;55036;52.138;5.236;2023-07-24T11:00:46;24.30;59.00
68215;DHT22;55036;52.138;5.236;2023-07-24T11:03:15;24.10;60.50
68215;DHT22;55036;52.138;5.236;2023-07-24T11:05:43;24.10;60.40
68215;DHT22;55036;52.138;5.236;2023-07-24T11:08:15;24.00;60.80
68215;DHT22;55036;52.138;5.236;2023-07-24T11:10:49;24.10;61.40
68215;DHT22;55036;52.138;5.236;2023-07-24T11:13:18;24.40;61.20
68215;DHT22;55036;52.138;5.236;2023-07-24T11:15:46;24.60;60.40
68215;DHT22;55036;52.138;5.236;2023-07-24T11:18:13;24.80;59.20
68215;DHT22;55036;52.138;5.236;2023-07-24T11:20:54;25.00;59.70
68215;DHT22;55036;52.138;5.236;2023-07-24T11:23:22;25.00;59.00
68215;DHT22;55036;52.138;5.236;2023-07-24T11:25:53;24.90;58.50
68215;DHT22;55036;52.138;5.236;2023-07-24T11:28:20;24.80;57.60
68215;DHT22;55036;52.138;5.236;2023-07-24T11:30:47;24.60;58.00
68215;DHT22;55036;52.138;5.236;2023-07-24T11:33:16;24.60;58.50
68215;DHT22;55036;52.138;5.236;2023-07-24T11:35:45;24.30;58.50
68215;DHT22;55036;52.138;5.236;2023-07-24T11:38:13;24.00;59.10
68215;DHT22;55036;52.138;5.236;2023-07-24T11:40:42;23.80;60.10
68215;DHT22;55036;52.138;5.236;2023-07-24T11:43:17;23.70;61.10
68215;DHT22;55036;52.138;5.236;2023-07-24T11:45:46;24.10;61.40
68215;DHT22;55036;52.138;5.236;2023-07-24T11:48:19;24.20;60.60
68215;DHT22;55036;52.138;5.236;2023-07-24T11:50:48;23.90;60.90
68215;DHT22;55036;52.138;5.236;2023-07-24T11:53:26;23.80;61.00
68215;DHT22;55036;52.138;5.236;2023-07-24T11:55:55;23.80;61.40
68215;DHT22;55036;52.138;5.236;2023-07-24T11:58:22;23.70;61.20
68215;DHT22;55036;52.138;5.236;2023-07-24T12:00:49;23.80;61.60
68215;DHT22;55036;52.138;5.236;2023-07-24T12:03:25;23.70;61.30
68215;DHT22;55036;52.138;5.236;2023-07-24T12:05:52;23.60;61.80
68215;DHT22;55036;52.138;5.236;2023-07-24T12:08:21;23.60;62.10
68215;DHT22;55036;52.138;5.236;2023-07-24T12:10:50;23.70;61.80
68215;DHT22;55036;52.138;5.236;2023-07-24T12:13:17;23.40;62.20
68215;DHT22;55036;52.138;5.236;2023-07-24T12:15:47;23.20;63.60
68215;DHT22;55036;52.138;5.236;2023-07-24T12:18:15;23.10;63.80
68215;DHT22;55036;52.138;5.236;2023-07-24T12:20:42;23.00;65.40
68215;DHT22;55036;52.138;5.236;2023-07-24T12:23:08;23.00;65.70
68215;DHT22;55036;52.138;5.236;2023-07-24T12:25:35;23.00;67.00
68215;DHT22;55036;52.138;5.236;2023-07-24T12:28:02;22.80;66.50
68215;DHT22;55036;52.138;5.236;2023-07-24T12:30:29;22.60;69.90
68215;DHT22;55036;52.138;5.236;2023-07-24T12:32:55;22.10;73.00
68215;DHT22;55036;52.138;5.236;2023-07-24T12:35:22;21.70;73.30
68215;DHT22;55036;52.138;5.236;2023-07-24T12:37:49;21.30;76.80
68215;DHT22;55036;52.138;5.236;2023-07-24T12:40:16;21.00;75.20
68215;DHT22;55036;52.138;5.236;2023-07-24T12:42:43;20.70;76.90
68215;DHT22;55036;52.138;5.236;2023-07-24T12:45:09;20.50;75.30
68215;DHT22;55036;52.138;5.236;2023-07-24T12:47:36;20.60;75.60
68215;DHT22;55036;52.138;5.236;2023-07-24T12:50:03;20.80;76.10
68215;DHT22;55036;52.138;5.236;2023-07-24T12:52:33;20.80;76.30
68215;DHT22;55036;52.138;5.236;2023-07-24T12:55:00;20.70;77.80
68215;DHT22;55036;52.138;5.236;2023-07-24T12:57:29;20.70;77.70
68215;DHT22;55036;52.138;5.236;2023-07-24T12:59:56;20.70;79.70
68215;DHT22;55036;52.138;5.236;2023-07-24T13:02:23;20.80;78.90
68215;DHT22;55036;52.138;5.236;2023-07-24T13:04:49;20.80;80.20
68215;DHT22;55036;52.138;5.236;2023-07-24T13:07:16;20.90;79.50
68215;DHT22;55036;52.138;5.236;2023-07-24T13:09:44;21.00;79.60
68215;DHT22;55036;52.138;5.236;2023-07-24T13:12:11;21.20;79.70
68215;DHT22;55036;52.138;5.236;2023-07-24T13:14:37;21.30;80.70
68215;DHT22;55036;52.138;5.236;2023-07-24T13:17:08;21.30;80.50
68215;DHT22;55036;52.138;5.236;2023-07-24T13:19:35;21.30;80.20
68215;DHT22;55036;52.138;5.236;2023-07-24T13:22:03;21.40;80.50
68215;DHT22;55036;52.138;5.236;2023-07-24T13:24:29;21.40;80.80
68215;DHT22;55036;52.138;5.236;2023-07-24T13:26:56;21.40;81.50
68215;DHT22;55036;52.138;5.236;2023-07-24T13:29:23;21.50;81.20
68215;DHT22;55036;52.138;5.236;2023-07-24T13:31:52;21.40;81.00
68215;DHT22;55036;52.138;5.236;2023-07-24T13:34:19;21.40;80.90
68215;DHT22;55036;52.138;5.236;2023-07-24T13:36:46;21.30;80.80
68215;DHT22;55036;52.138;5.236;2023-07-24T13:39:14;21.30;80.70
68215;DHT22;55036;52.138;5.236;2023-07-24T13:41:41;21.30;80.80
68215;DHT22;55036;52.138;5.236;2023-07-24T13:44:08;21.40;81.50
68215;DHT22;55036;52.138;5.236;2023-07-24T13:46:35;21.40;82.90
68215;DHT22;55036;52.138;5.236;2023-07-24T13:49:06;21.60;83.20
68215;DHT22;55036;52.138;5.236;2023-07-24T13:51:32;21.70;83.00
68215;DHT22;55036;52.138;5.236;2023-07-24T13:53:59;21.90;83.10
68215;DHT22;55036;52.138;5.236;2023-07-24T13:56:28;22.00;82.60
68215;DHT22;55036;52.138;5.236;2023-07-24T13:58:56;22.00;81.60
68215;DHT22;55036;52.138;5.236;2023-07-24T14:01:23;22.00;81.50
68215;DHT22;55036;52.138;5.236;2023-07-24T14:03:49;22.00;81.10
68215;DHT22;55036;52.138;5.236;2023-07-24T14:06:16;22.00;81.20
68215;DHT22;55036;52.138;5.236;2023-07-24T14:08:43;22.00;81.30
68215;DHT22;55036;52.138;5.236;2023-07-24T14:11:10;21.90;81.00
68215;DHT22;55036;52.138;5.236;2023-07-24T14:13:37;21.80;80.30
68215;DHT22;55036;52.138;5.236;2023-07-24T14:16:03;21.70;80.60
68215;DHT22;55036;52.138;5.236;2023-07-24T14:18:30;21.70;80.60
68215;DHT22;55036;52.138;5.236;2023-07-24T14:20:57;21.60;80.50
68215;DHT22;55036;52.138;5.236;2023-07-24T14:23:26;21.60;79.70
68215;DHT22;55036;52.138;5.236;2023-07-24T14:25:52;21.60;79.80
68215;DHT22;55036;52.138;5.236;2023-07-24T14:28:19;21.60;79.00
68215;DHT22;55036;52.138;5.236;2023-07-24T14:30:46;21.60;79.70
68215;DHT22;55036;52.138;5.236;2023-07-24T14:33:13;21.80;80.30
68215;DHT22;55036;52.138;5.236;2023-07-24T14:35:40;21.90;80.00
68215;DHT22;55036;52.138;5.236;2023-07-24T14:38:07;22.10;79.80
68215;DHT22;55036;52.138;5.236;2023-07-24T14:40:33;22.20;78.80
68215;DHT22;55036;52.138;5.236;2023-07-24T14:43:00;22.20;77.40
68215;DHT22;55036;52.138;5.236;2023-07-24T14:45:31;22.00;77.20
68215;DHT22;55036;52.138;5.236;2023-07-24T14:47:57;22.00;78.50
68215;DHT22;55036;52.138;5.236;2023-07-24T14:50:24;22.10;77.20
68215;DHT22;55036;52.138;5.236;2023-07-24T14:52:51;22.00;74.80
68215;DHT22;55036;52.138;5.236;2023-07-24T14:55:18;21.90;75.10
68215;DHT22;55036;52.138;5.236;2023-07-24T14:57:45;21.80;75.00
68215;DHT22;55036;52.138;5.236;2023-07-24T15:00:12;21.80;74.90
68215;DHT22;55036;52.138;5.236;2023-07-24T15:02:39;21.80;76.10
68215;DHT22;55036;52.138;5.236;2023-07-24T15:05:06;21.90;75.90
68215;DHT22;55036;52.138;5.236;2023-07-24T15:07:32;22.00;74.60
68215;DHT22;55036;52.138;5.236;2023-07-24T15:09:59;21.90;72.00
68215;DHT22;55036;52.138;5.236;2023-07-24T15:12:26;21.80;73.50
68215;DHT22;55036;52.138;5.236;2023-07-24T15:14:53;21.70;72.40
68215;DHT22;55036;52.138;5.236;2023-07-24T15:17:19;21.70;73.00
68215;DHT22;55036;52.138;5.236;2023-07-24T15:19:46;21.60;71.80
68215;DHT22;55036;52.138;5.236;2023-07-24T15:22:13;21.40;73.20
68215;DHT22;55036;52.138;5.236;2023-07-24T15:24:40;21.40;73.30
68215;DHT22;55036;52.138;5.236;2023-07-24T15:27:09;21.40;74.00
68215;DHT22;55036;52.138;5.236;2023-07-24T15:29:37;21.40;74.60
68215;DHT22;55036;52.138;5.236;2023-07-24T15:32:04;21.40;74.00
68215;DHT22;55036;52.138;5.236;2023-07-24T15:34:31;21.30;74.10
68215;DHT22;55036;52.138;5.236;2023-07-24T15:36:58;21.30;73.50
68215;DHT22;55036;52.138;5.236;2023-07-24T15:39:25;21.20;73.90
68215;DHT22;55036;52.138;5.236;2023-07-24T15:41:51;21.10;74.00
68215;DHT22;55036;52.138;5.236;2023-07-24T15:44:18;21.10;73.50
68215;DHT22;55036;52.138;5.236;2023-07-24T15:46:45;20.90;73.00
68215;DHT22;55036;52.138;5.236;2023-07-24T15:49:14;20.80;73.50
68215;DHT22;55036;52.138;5.236;2023-07-24T15:51:41;20.70;74.10
68215;DHT22;55036;52.138;5.236;2023-07-24T15:54:07;20.60;74.20
68215;DHT22;55036;52.138;5.236;2023-07-24T15:56:38;20.70;74.60
68215;DHT22;55036;52.138;5.236;2023-07-24T15:59:05;20.70;73.90
68215;DHT22;55036;52.138;5.236;2023-07-24T16:01:32;20.70;74.40
68215;DHT22;55036;52.138;5.236;2023-07-24T16:04:00;20.60;73.70
68215;DHT22;55036;52.138;5.236;2023-07-24T16:06:27;20.60;74.50
68215;DHT22;55036;52.138;5.236;2023-07-24T16:08:53;20.60;75.10
68215;DHT22;55036;52.138;5.236;2023-07-24T16:11:20;20.60;74.30
68215;DHT22;55036;52.138;5.236;2023-07-24T16:13:47;20.70;73.30
68215;DHT22;55036;52.138;5.236;2023-07-24T16:16:14;20.60;73.70
68215;DHT22;55036;52.138;5.236;2023-07-24T16:18:41;20.60;73.70